createdAt,value
2019-02-25T00:00:22.788Z,22.80
2019-02-25T00:01:22.756Z,22.80
2019-02-25T00:02:22.731Z,21.70
2019-02-25T00:03:22.709Z,20.50
2019-02-25T00:04:22.682Z,21.30
2019-02-25T00:05:22.656Z,21.20
2019-02-25T00:06:22.642Z,20.70
2019-02-25T00:07:22.611Z,21.10
2019-02-25T00:08:22.586Z,21.70
2019-02-25T00:09:22.569Z,21.10
2019-02-25T00:10:22.543Z,21.60
2019-02-25T00:11:22.512Z,20.10
2019-02-25T00:12:22.489Z,21.10
2019-02-25T00:13:22.464Z,21.40
2019-02-25T00:14:22.439Z,21.40
2019-02-25T00:15:22.426Z,22.30
2019-02-25T00:16:22.396Z,20.80
2019-02-25T00:17:22.366Z,20.50
2019-02-25T00:18:22.347Z,22.30
2019-02-25T00:19:22.317Z,21.80
2019-02-25T00:20:22.302Z,21.00
2019-02-25T00:21:22.273Z,21.40
2019-02-25T00:22:22.244Z,20.50
2019-02-25T00:23:22.222Z,21.50
2019-02-25T00:24:22.197Z,22.70
2019-02-25T00:25:22.172Z,21.10
2019-02-25T00:26:22.151Z,20.00
2019-02-25T00:27:22.123Z,20.70
2019-02-25T00:28:22.097Z,21.20
2019-02-25T00:29:22.074Z,22.70
2019-02-25T00:30:22.054Z,20.20
2019-02-25T00:31:22.025Z,20.40
2019-02-25T00:32:22.004Z,20.90
2019-02-25T00:33:21.979Z,21.40
2019-02-25T00:34:21.953Z,20.40
2019-02-25T00:35:21.927Z,19.70
2019-02-25T00:36:21.911Z,19.90
2019-02-25T00:37:21.879Z,19.60
2019-02-25T00:38:21.854Z,20.10
2019-02-25T00:39:21.830Z,20.00
2019-02-25T00:40:21.808Z,19.40
2019-02-25T00:41:21.783Z,20.20
2019-02-25T00:42:21.769Z,19.50
2019-02-25T00:43:21.731Z,19.90
2019-02-25T00:44:21.707Z,20.10
2019-02-25T00:45:21.684Z,19.60
2019-02-25T00:46:21.666Z,20.80
2019-02-25T00:47:21.636Z,18.70
2019-02-25T00:48:21.615Z,20.00
2019-02-25T00:49:21.591Z,19.80
2019-02-25T00:50:21.563Z,19.50
2019-02-25T00:51:21.537Z,19.70
2019-02-25T00:52:21.511Z,19.80
2019-02-25T00:53:21.487Z,20.30
2019-02-25T00:54:21.462Z,21.30
2019-02-25T00:55:21.440Z,19.90
2019-02-25T00:56:21.420Z,20.10
2019-02-25T00:57:21.389Z,19.60
2019-02-25T00:58:21.374Z,20.70
2019-02-25T00:59:21.344Z,20.60
2019-02-25T01:00:21.321Z,21.10
2019-02-25T01:01:21.298Z,20.80
2019-02-25T01:02:21.274Z,21.90
2019-02-25T01:03:21.245Z,20.10
2019-02-25T01:04:21.227Z,20.00
2019-02-25T01:05:21.200Z,20.80
2019-02-25T01:06:21.172Z,20.40
2019-02-25T01:07:21.149Z,20.30
2019-02-25T01:08:21.120Z,20.60
2019-02-25T01:09:21.096Z,22.20
2019-02-25T01:10:21.077Z,20.40
2019-02-25T01:11:21.055Z,20.50
2019-02-25T01:12:21.033Z,20.70
2019-02-25T01:13:20.997Z,20.40
2019-02-25T01:14:20.973Z,20.10
2019-02-25T01:15:20.951Z,20.90
2019-02-25T01:16:20.926Z,20.20
2019-02-25T01:17:20.901Z,20.00
2019-02-25T01:18:20.883Z,19.70
2019-02-25T01:19:20.853Z,21.00
2019-02-25T01:20:20.827Z,19.80
2019-02-25T01:21:20.800Z,20.00
2019-02-25T01:22:20.780Z,23.90
2019-02-25T01:23:20.754Z,19.50
2019-02-25T01:24:20.729Z,20.60
2019-02-25T01:25:20.705Z,20.70
2019-02-25T01:26:20.685Z,18.90
2019-02-25T01:27:20.656Z,18.80
2019-02-25T01:28:20.632Z,18.90
2019-02-25T01:29:20.604Z,18.80
2019-02-25T01:30:20.580Z,19.40
2019-02-25T01:31:20.556Z,20.40
2019-02-25T01:32:20.531Z,19.70
2019-02-25T01:33:20.505Z,20.00
2019-02-25T01:34:20.481Z,19.60
2019-02-25T01:35:20.456Z,20.30
2019-02-25T01:36:20.433Z,19.50
2019-02-25T01:37:20.412Z,19.60
2019-02-25T01:38:20.381Z,19.50
2019-02-25T01:39:20.361Z,18.50
2019-02-25T01:40:20.332Z,19.30
2019-02-25T01:41:20.308Z,19.90
2019-02-25T01:42:20.283Z,19.10
2019-02-25T01:43:20.259Z,19.10
2019-02-25T01:44:20.235Z,18.70
2019-02-25T01:45:20.213Z,20.70
2019-02-25T01:46:20.188Z,21.40
2019-02-25T01:47:20.161Z,21.30
2019-02-25T01:48:20.135Z,20.10
2019-02-25T01:49:20.111Z,20.40
2019-02-25T01:50:20.084Z,20.30
2019-02-25T01:51:22.089Z,19.10
2019-02-25T01:52:20.039Z,19.10
2019-02-25T01:53:20.014Z,19.60
2019-02-25T01:54:19.986Z,19.50
2019-02-25T01:55:19.963Z,20.60
2019-02-25T01:56:19.937Z,20.30
2019-02-25T01:57:19.911Z,20.00
2019-02-25T01:58:19.886Z,19.50
2019-02-25T01:59:20.015Z,19.60
2019-02-25T02:00:19.837Z,21.70
2019-02-25T02:01:19.817Z,19.50
2019-02-25T02:02:19.788Z,18.70
2019-02-25T02:03:19.766Z,18.90
2019-02-25T02:04:19.739Z,19.80
2019-02-25T02:05:19.711Z,21.30
2019-02-25T02:06:19.688Z,20.40
2019-02-25T02:07:19.666Z,20.30
2019-02-25T02:08:19.643Z,19.80
2019-02-25T02:09:19.614Z,19.70
2019-02-25T02:10:19.590Z,19.60
2019-02-25T02:11:19.564Z,19.30
2019-02-25T02:12:19.543Z,19.80
2019-02-25T02:13:19.515Z,19.70
2019-02-25T02:14:19.493Z,19.70
2019-02-25T02:15:19.465Z,19.30
2019-02-25T02:16:19.441Z,20.70
2019-02-25T02:17:19.416Z,21.40
2019-02-25T02:18:19.397Z,19.70
2019-02-25T02:19:19.365Z,20.10
2019-02-25T02:20:19.345Z,22.70
2019-02-25T02:21:19.317Z,19.90
2019-02-25T02:22:19.292Z,18.70
2019-02-25T02:23:19.266Z,20.00
2019-02-25T02:24:19.240Z,18.90
2019-02-25T02:25:19.221Z,19.10
2019-02-25T02:26:21.070Z,20.00
2019-02-25T02:27:19.173Z,19.40
2019-02-25T02:28:19.142Z,20.30
2019-02-25T02:29:19.121Z,21.20
2019-02-25T02:30:19.099Z,18.80
2019-02-25T02:31:19.072Z,19.70
2019-02-25T02:32:19.058Z,20.50
2019-02-25T02:33:19.015Z,19.70
2019-02-25T02:34:19.004Z,18.90
2019-02-25T02:35:18.976Z,19.10
2019-02-25T02:36:18.943Z,19.00
2019-02-25T02:37:18.917Z,19.80
2019-02-25T02:38:18.893Z,18.20
2019-02-25T02:39:18.868Z,19.40
2019-02-25T02:40:18.843Z,18.90
2019-02-25T02:41:18.826Z,18.70
2019-02-25T02:42:18.799Z,20.80
2019-02-25T02:43:18.769Z,19.00
2019-02-25T02:44:18.744Z,19.80
2019-02-25T02:45:18.722Z,18.30
2019-02-25T02:46:18.693Z,19.90
2019-02-25T02:47:18.672Z,20.80
2019-02-25T02:48:18.646Z,19.10
2019-02-25T02:49:18.617Z,18.70
2019-02-25T02:50:18.594Z,19.20
2019-02-25T02:51:18.569Z,19.60
2019-02-25T02:52:18.544Z,18.90
2019-02-25T02:53:18.663Z,20.90
2019-02-25T02:54:18.494Z,19.80
2019-02-25T02:55:18.467Z,19.40
2019-02-25T02:56:18.442Z,19.20
2019-02-25T02:57:18.417Z,20.20
2019-02-25T02:58:18.392Z,20.20
2019-02-25T02:59:18.366Z,19.90
2019-02-25T03:00:18.344Z,20.20
2019-02-25T03:01:18.333Z,20.00
2019-02-25T03:02:18.296Z,21.10
2019-02-25T03:03:18.275Z,22.70
2019-02-25T03:04:18.247Z,19.90
2019-02-25T03:05:18.218Z,20.00
2019-02-25T03:06:18.197Z,20.80
2019-02-25T03:07:18.167Z,19.90
2019-02-25T03:08:18.143Z,20.00
2019-02-25T03:09:18.117Z,19.30
2019-02-25T03:10:18.113Z,18.50
2019-02-25T03:11:18.069Z,19.40
2019-02-25T03:12:18.050Z,19.00
2019-02-25T03:13:18.014Z,20.10
2019-02-25T03:14:17.991Z,19.60
2019-02-25T03:15:17.967Z,19.00
2019-02-25T03:16:17.947Z,19.50
2019-02-25T03:17:17.914Z,18.60
2019-02-25T03:18:17.894Z,20.30
2019-02-25T03:19:17.869Z,21.50
2019-02-25T03:20:17.841Z,19.30
2019-02-25T03:21:17.830Z,19.80
2019-02-25T03:22:17.790Z,18.80
2019-02-25T03:23:17.763Z,20.50
2019-02-25T03:24:17.750Z,20.10
2019-02-25T03:25:17.738Z,19.60
2019-02-25T03:26:17.691Z,19.40
2019-02-25T03:27:17.667Z,19.20
2019-02-25T03:28:17.643Z,19.70
2019-02-25T03:29:17.623Z,19.20
2019-02-25T03:30:17.633Z,18.80
2019-02-25T03:31:17.569Z,18.60
2019-02-25T03:32:17.546Z,19.10
2019-02-25T03:33:17.514Z,19.80
2019-02-25T03:34:17.514Z,19.30
2019-02-25T03:35:17.467Z,19.10
2019-02-25T03:36:17.447Z,19.10
2019-02-25T03:37:17.420Z,19.90
2019-02-25T03:38:17.390Z,20.20
2019-02-25T03:39:17.363Z,18.90
2019-02-25T03:40:17.341Z,19.70
2019-02-25T03:41:17.315Z,17.70
2019-02-25T03:42:17.288Z,19.20
2019-02-25T03:43:17.270Z,18.90
2019-02-25T03:44:17.243Z,20.60
2019-02-25T03:45:17.215Z,19.90
2019-02-25T03:46:17.194Z,19.70
2019-02-25T03:47:17.163Z,18.20
2019-02-25T03:48:17.139Z,19.10
2019-02-25T03:49:17.114Z,20.00
2019-02-25T03:50:17.106Z,20.10
2019-02-25T03:51:17.063Z,19.20
2019-02-25T03:52:17.036Z,20.30
2019-02-25T03:53:17.012Z,18.80
2019-02-25T03:54:16.994Z,19.20
2019-02-25T03:55:16.979Z,20.30
2019-02-25T03:56:16.936Z,19.20
2019-02-25T03:57:16.916Z,18.70
2019-02-25T03:58:16.883Z,20.40
2019-02-25T03:59:16.862Z,20.10
2019-02-25T04:00:16.835Z,21.40
2019-02-25T04:01:16.810Z,21.80
2019-02-25T04:02:16.782Z,21.20
2019-02-25T04:03:16.763Z,21.20
2019-02-25T04:04:16.736Z,18.90
2019-02-25T04:05:16.708Z,19.30
2019-02-25T04:06:16.687Z,19.40
2019-02-25T04:07:16.658Z,19.00
2019-02-25T04:08:16.634Z,19.70
2019-02-25T04:09:16.607Z,19.20
2019-02-25T04:10:16.606Z,18.70
2019-02-25T04:11:16.568Z,19.90
2019-02-25T04:12:16.533Z,19.90
2019-02-25T04:13:16.508Z,20.50
2019-02-25T04:14:16.480Z,20.70
2019-02-25T04:15:16.467Z,20.40
2019-02-25T04:16:16.435Z,20.30
2019-02-25T04:17:16.407Z,21.40
2019-02-25T04:18:16.382Z,20.80
2019-02-25T04:19:16.355Z,20.50
2019-02-25T04:20:16.337Z,20.60
2019-02-25T04:21:16.312Z,23.10
2019-02-25T04:22:16.325Z,20.50
2019-02-25T04:23:16.261Z,21.20
2019-02-25T04:24:16.228Z,20.00
2019-02-25T04:25:16.206Z,20.80
2019-02-25T04:26:16.178Z,20.40
2019-02-25T04:27:16.156Z,20.40
2019-02-25T04:28:16.131Z,21.80
2019-02-25T04:29:16.101Z,21.30
2019-02-25T04:30:16.074Z,19.70
2019-02-25T04:31:16.054Z,20.00
2019-02-25T04:32:16.025Z,20.30
2019-02-25T04:33:15.999Z,20.50
2019-02-25T04:34:15.974Z,20.40
2019-02-25T04:35:15.949Z,18.90
2019-02-25T04:36:15.925Z,19.90
2019-02-25T04:37:15.898Z,19.40
2019-02-25T04:38:15.872Z,20.00
2019-02-25T04:39:15.848Z,19.90
2019-02-25T04:40:15.827Z,21.20
2019-02-25T04:41:15.799Z,20.20
2019-02-25T04:42:15.779Z,20.60
2019-02-25T04:43:15.753Z,21.40
2019-02-25T04:44:15.722Z,20.80
2019-02-25T04:45:15.693Z,20.70
2019-02-25T04:46:15.667Z,21.60
2019-02-25T04:47:15.649Z,18.70
2019-02-25T04:48:15.618Z,20.50
2019-02-25T04:49:15.592Z,20.40
2019-02-25T04:50:15.569Z,22.10
2019-02-25T04:51:15.540Z,20.20
2019-02-25T04:52:15.516Z,20.50
2019-02-25T04:53:15.495Z,19.80
2019-02-25T04:54:15.475Z,21.10
2019-02-25T04:55:15.443Z,19.40
2019-02-25T04:56:15.414Z,20.80
2019-02-25T04:57:15.395Z,21.10
2019-02-25T04:58:15.376Z,21.50
2019-02-25T04:59:15.340Z,20.80
2019-02-25T05:00:15.319Z,20.40
2019-02-25T05:01:15.289Z,22.00
2019-02-25T05:02:15.262Z,22.10
2019-02-25T05:03:15.238Z,21.70
2019-02-25T05:04:15.213Z,20.00
2019-02-25T05:05:15.185Z,21.90
2019-02-25T05:06:15.166Z,22.00
2019-02-25T05:07:15.133Z,21.30
2019-02-25T05:08:15.110Z,21.00
2019-02-25T05:09:15.097Z,21.40
2019-02-25T05:10:15.064Z,22.10
2019-02-25T05:11:15.035Z,21.70
2019-02-25T05:12:15.014Z,22.80
2019-02-25T05:13:14.982Z,23.70
2019-02-25T05:14:14.956Z,23.10
2019-02-25T05:15:14.934Z,22.30
2019-02-25T05:16:14.906Z,22.80
2019-02-25T05:17:14.880Z,23.10
2019-02-25T05:18:14.867Z,22.20
2019-02-25T05:19:14.833Z,23.10
2019-02-25T05:20:14.807Z,22.10
2019-02-25T05:21:14.779Z,23.20
2019-02-25T05:22:14.753Z,22.70
2019-02-25T05:23:14.726Z,22.60
2019-02-25T05:24:14.702Z,22.30
2019-02-25T05:25:14.679Z,23.90
2019-02-25T05:26:14.650Z,23.40
2019-02-25T05:27:14.634Z,22.90
2019-02-25T05:28:14.616Z,22.20
2019-02-25T05:29:14.573Z,23.00
2019-02-25T05:30:14.570Z,22.40
2019-02-25T05:31:14.525Z,23.00
2019-02-25T05:32:14.496Z,22.00
2019-02-25T05:33:14.473Z,22.40
2019-02-25T05:34:14.449Z,22.20
2019-02-25T05:35:14.436Z,23.10
2019-02-25T05:36:14.400Z,23.00
2019-02-25T05:37:14.379Z,21.80
2019-02-25T05:38:14.347Z,22.20
2019-02-25T05:39:14.319Z,22.20
2019-02-25T05:40:14.299Z,22.80
2019-02-25T05:41:14.270Z,23.90
2019-02-25T05:42:14.247Z,22.70
2019-02-25T05:43:14.220Z,22.00
2019-02-25T05:44:14.194Z,24.20
2019-02-25T05:45:14.175Z,23.60
2019-02-25T05:46:14.149Z,25.00
2019-02-25T05:47:14.121Z,22.60
2019-02-25T05:48:14.093Z,25.10
2019-02-25T05:49:14.066Z,22.30
2019-02-25T05:50:14.087Z,22.10
2019-02-25T05:51:14.024Z,22.70
2019-02-25T05:52:13.994Z,23.60
2019-02-25T05:53:13.963Z,23.50
2019-02-25T05:54:13.944Z,22.90
2019-02-25T05:55:13.974Z,25.10
2019-02-25T05:56:13.887Z,23.70
2019-02-25T05:57:13.872Z,24.50
2019-02-25T05:58:13.844Z,23.00
2019-02-25T05:59:13.815Z,23.30
2019-02-25T06:00:13.789Z,23.00
2019-02-25T06:01:13.759Z,23.90
2019-02-25T06:02:13.736Z,23.30
2019-02-25T06:03:13.707Z,24.20
2019-02-25T06:04:13.682Z,23.40
2019-02-25T06:05:13.658Z,23.70
2019-02-25T06:06:13.631Z,23.00
2019-02-25T06:07:13.606Z,23.60
2019-02-25T06:08:13.583Z,25.30
2019-02-25T06:09:13.556Z,24.20
2019-02-25T06:10:13.529Z,24.90
2019-02-25T06:11:13.513Z,23.00
2019-02-25T06:12:13.479Z,24.10
2019-02-25T06:13:13.454Z,27.50
2019-02-25T06:14:13.429Z,22.10
2019-02-25T06:15:13.405Z,23.60
2019-02-25T06:16:13.379Z,24.10
2019-02-25T06:17:13.351Z,22.70
2019-02-25T06:18:13.325Z,21.80
2019-02-25T06:19:13.301Z,23.40
2019-02-25T06:20:13.305Z,23.30
2019-02-25T06:21:13.254Z,23.30
2019-02-25T06:22:13.223Z,23.40
2019-02-25T06:23:13.202Z,22.80
2019-02-25T06:24:13.173Z,24.90
2019-02-25T06:25:13.184Z,26.20
2019-02-25T06:26:13.129Z,23.10
2019-02-25T06:27:13.097Z,22.90
2019-02-25T06:28:13.070Z,23.70
2019-02-25T06:29:13.044Z,25.70
2019-02-25T06:30:13.024Z,22.90
2019-02-25T06:31:12.997Z,24.00
2019-02-25T06:32:12.966Z,24.00
2019-02-25T06:33:12.940Z,24.40
2019-02-25T06:34:12.914Z,23.70
2019-02-25T06:35:12.897Z,24.10
2019-02-25T06:36:12.872Z,26.60
2019-02-25T06:37:12.839Z,23.30
2019-02-25T06:38:12.816Z,24.00
2019-02-25T06:39:12.800Z,23.80
2019-02-25T06:40:15.250Z,23.00
2019-02-25T06:41:12.745Z,22.10
2019-02-25T06:42:12.710Z,23.70
2019-02-25T06:43:12.686Z,23.90
2019-02-25T06:44:12.659Z,23.90
2019-02-25T06:45:12.636Z,24.30
2019-02-25T06:46:12.607Z,23.40
2019-02-25T06:47:12.583Z,25.60
2019-02-25T06:48:12.559Z,24.20
2019-02-25T06:49:12.531Z,25.10
2019-02-25T06:50:12.503Z,26.80
2019-02-25T06:51:12.480Z,24.60
2019-02-25T06:52:12.461Z,25.30
2019-02-25T06:53:12.427Z,25.40
2019-02-25T06:54:12.402Z,24.20
2019-02-25T06:55:12.378Z,26.40
2019-02-25T06:56:12.350Z,23.80
2019-02-25T06:57:12.324Z,24.80
2019-02-25T06:58:12.301Z,22.60
2019-02-25T06:59:12.274Z,26.60
2019-02-25T07:00:12.250Z,24.40
2019-02-25T07:01:12.220Z,25.50
2019-02-25T07:02:12.196Z,23.60
2019-02-25T07:03:12.175Z,25.50
2019-02-25T07:04:12.145Z,24.00
2019-02-25T07:05:12.118Z,24.70
2019-02-25T07:06:12.093Z,24.80
2019-02-25T07:07:12.067Z,24.70
2019-02-25T07:08:12.042Z,24.30
2019-02-25T07:09:12.016Z,25.20
2019-02-25T07:10:11.995Z,25.30
2019-02-25T07:11:11.966Z,24.10
2019-02-25T07:12:11.943Z,23.70
2019-02-25T07:13:11.911Z,24.60
2019-02-25T07:14:11.891Z,24.40
2019-02-25T07:15:11.861Z,23.60
2019-02-25T07:16:11.838Z,24.60
2019-02-25T07:17:11.811Z,23.20
2019-02-25T07:18:11.786Z,24.70
2019-02-25T07:19:11.760Z,24.80
2019-02-25T07:20:11.732Z,24.30
2019-02-25T07:21:11.716Z,23.90
2019-02-25T07:22:11.699Z,23.50
2019-02-25T07:23:11.672Z,23.90
2019-02-25T07:24:11.632Z,24.20
2019-02-25T07:25:11.610Z,24.00
2019-02-25T07:26:11.584Z,25.20
2019-02-25T07:27:11.563Z,24.10
2019-02-25T07:28:11.530Z,24.20
2019-02-25T07:29:11.506Z,24.70
2019-02-25T07:30:11.479Z,23.70
2019-02-25T07:31:11.455Z,23.60
2019-02-25T07:32:11.429Z,23.50
2019-02-25T07:33:11.404Z,23.10
2019-02-25T07:34:11.388Z,24.00
2019-02-25T07:35:11.350Z,22.90
2019-02-25T07:36:11.346Z,22.80
2019-02-25T07:37:11.299Z,22.50
2019-02-25T07:38:11.297Z,22.90
2019-02-25T07:39:11.247Z,23.40
2019-02-25T07:40:11.222Z,22.90
2019-02-25T07:41:11.194Z,24.60
2019-02-25T07:42:11.174Z,24.10
2019-02-25T07:43:11.142Z,24.80
2019-02-25T07:44:11.125Z,24.40
2019-02-25T07:45:11.103Z,25.20
2019-02-25T07:46:11.068Z,23.80
2019-02-25T07:47:11.043Z,27.30
2019-02-25T07:48:11.017Z,24.10
2019-02-25T07:49:10.995Z,23.70
2019-02-25T07:50:10.969Z,24.80
2019-02-25T07:51:10.942Z,26.30
2019-02-25T07:52:10.913Z,26.80
2019-02-25T07:53:10.894Z,25.50
2019-02-25T07:54:10.869Z,27.20
2019-02-25T07:55:10.839Z,27.50
2019-02-25T07:56:10.814Z,28.30
2019-02-25T07:57:10.796Z,26.80
2019-02-25T07:58:10.763Z,26.60
2019-02-25T07:59:10.738Z,26.30
2019-02-25T08:00:10.712Z,25.30
2019-02-25T08:01:10.686Z,26.00
2019-02-25T08:02:10.658Z,26.60
2019-02-25T08:03:10.636Z,28.30
2019-02-25T08:04:10.610Z,27.50
2019-02-25T08:05:10.585Z,30.20
2019-02-25T08:06:12.007Z,29.60
2019-02-25T08:07:10.532Z,32.80
2019-02-25T08:08:10.509Z,34.90
2019-02-25T08:09:10.485Z,33.40
2019-02-25T08:10:10.457Z,33.00
2019-02-25T08:11:10.436Z,29.30
2019-02-25T08:12:10.408Z,29.60
2019-02-25T08:13:10.381Z,28.80
2019-02-25T08:14:10.358Z,28.70
2019-02-25T08:15:10.331Z,29.50
2019-02-25T08:16:10.306Z,30.10
2019-02-25T08:17:10.281Z,27.40
2019-02-25T08:18:10.259Z,29.90
2019-02-25T08:19:10.235Z,27.90
2019-02-25T08:20:10.208Z,35.20
2019-02-25T08:21:10.181Z,27.50
2019-02-25T08:22:10.155Z,28.40
2019-02-25T08:23:10.139Z,30.00
2019-02-25T08:24:10.111Z,32.80
2019-02-25T08:25:10.079Z,31.90
2019-02-25T08:26:10.056Z,32.30
2019-02-25T08:27:10.033Z,29.90
2019-02-25T08:28:10.011Z,31.10
2019-02-25T08:29:09.988Z,33.20
2019-02-25T08:30:09.957Z,36.90
2019-02-25T08:31:09.936Z,36.10
2019-02-25T08:32:09.915Z,37.80
2019-02-25T08:33:09.879Z,38.70
2019-02-25T08:34:18.382Z,31.10
2019-02-25T08:35:09.833Z,27.50
2019-02-25T08:36:09.810Z,25.80
2019-02-25T08:37:09.780Z,24.80
2019-02-25T08:38:09.756Z,23.40
2019-02-25T08:39:09.730Z,23.00
2019-02-25T08:40:11.620Z,22.50
2019-02-25T08:41:09.680Z,23.60
2019-02-25T08:42:09.671Z,21.30
2019-02-25T08:43:09.631Z,23.80
2019-02-25T08:44:09.613Z,22.20
2019-02-25T08:45:09.583Z,24.10
2019-02-25T08:46:09.557Z,22.30
2019-02-25T08:47:09.544Z,22.00
2019-02-25T08:48:09.511Z,22.30
2019-02-25T08:49:09.492Z,20.60
2019-02-25T08:50:09.459Z,20.60
2019-02-25T08:51:09.433Z,20.30
2019-02-25T08:52:09.411Z,20.70
2019-02-25T08:53:09.393Z,21.20
2019-02-25T08:54:09.361Z,21.90
2019-02-25T08:55:09.337Z,20.50
2019-02-25T08:56:09.322Z,23.90
2019-02-25T08:57:09.293Z,20.20
2019-02-25T08:58:09.400Z,21.10
2019-02-25T08:59:09.249Z,20.70
2019-02-25T09:00:09.217Z,20.20
2019-02-25T09:01:09.244Z,18.60
2019-02-25T09:02:09.175Z,21.30
2019-02-25T09:03:09.148Z,24.90
2019-02-25T09:04:09.127Z,18.00
2019-02-25T09:05:09.103Z,19.50
2019-02-25T09:06:09.074Z,18.00
2019-02-25T09:07:09.050Z,19.30
2019-02-25T09:08:09.026Z,18.60
2019-02-25T09:09:08.996Z,18.80
2019-02-25T09:10:08.974Z,17.90
2019-02-25T09:11:14.180Z,21.80
2019-02-25T09:12:08.929Z,17.60
2019-02-25T09:13:08.899Z,18.80
2019-02-25T09:14:08.874Z,17.40
2019-02-25T09:15:08.850Z,19.30
2019-02-25T09:16:08.825Z,18.30
2019-02-25T09:17:08.799Z,18.90
2019-02-25T09:18:08.778Z,17.90
2019-02-25T09:19:08.754Z,17.00
2019-02-25T09:20:08.740Z,17.80
2019-02-25T09:21:08.705Z,17.90
2019-02-25T09:22:08.692Z,18.50
2019-02-25T09:23:08.657Z,19.50
2019-02-25T09:24:08.642Z,18.30
2019-02-25T09:25:08.610Z,18.50
2019-02-25T09:26:08.585Z,19.50
2019-02-25T09:27:08.566Z,19.00
2019-02-25T09:28:08.537Z,16.30
2019-02-25T09:29:08.521Z,18.60
2019-02-25T09:30:08.488Z,19.00
2019-02-25T09:31:08.465Z,16.60
2019-02-25T09:32:08.443Z,17.80
2019-02-25T09:33:08.419Z,18.50
2019-02-25T09:34:08.391Z,19.40
2019-02-25T09:35:08.368Z,21.20
2019-02-25T09:36:08.345Z,20.10
2019-02-25T09:37:08.319Z,24.00
2019-02-25T09:38:08.298Z,20.50
2019-02-25T09:39:08.281Z,20.90
2019-02-25T09:40:08.250Z,21.30
2019-02-25T09:41:08.224Z,22.40
2019-02-25T09:42:08.209Z,22.70
2019-02-25T09:43:08.178Z,24.30
2019-02-25T09:44:08.154Z,21.20
2019-02-25T09:45:08.130Z,19.60
2019-02-25T09:46:08.114Z,23.10
2019-02-25T09:47:08.085Z,20.40
2019-02-25T09:48:08.069Z,22.50
2019-02-25T09:49:08.046Z,20.20
2019-02-25T09:50:08.028Z,23.10
2019-02-25T09:51:07.997Z,22.70
2019-02-25T09:52:07.964Z,22.00
2019-02-25T09:53:07.944Z,23.90
2019-02-25T09:54:07.916Z,22.80
2019-02-25T09:55:07.900Z,22.90
2019-02-25T09:56:07.875Z,20.20
2019-02-25T09:57:07.857Z,21.50
2019-02-25T09:58:10.815Z,25.70
2019-02-25T09:59:07.799Z,24.20
2019-02-25T10:00:07.778Z,24.50
2019-02-25T10:01:07.758Z,24.90
2019-02-25T10:02:07.728Z,25.00
2019-02-25T10:03:07.720Z,21.60
2019-02-25T10:04:08.812Z,23.50
2019-02-25T10:05:07.670Z,23.90
2019-02-25T10:06:07.637Z,24.40
2019-02-25T10:07:07.613Z,25.70
2019-02-25T10:08:07.589Z,22.90
2019-02-25T10:09:07.575Z,19.20
2019-02-25T10:10:07.546Z,18.60
2019-02-25T10:11:07.526Z,20.40
2019-02-25T10:12:07.497Z,19.20
2019-02-25T10:13:07.473Z,22.80
2019-02-25T10:14:07.450Z,18.80
2019-02-25T10:15:07.429Z,17.90
2019-02-25T10:16:07.404Z,20.00
2019-02-25T10:17:07.383Z,23.00
2019-02-25T10:18:07.364Z,18.60
2019-02-25T10:19:07.340Z,18.70
2019-02-25T10:20:07.319Z,17.50
2019-02-25T10:21:07.288Z,20.90
2019-02-25T10:22:07.268Z,18.50
2019-02-25T10:23:07.255Z,22.70
2019-02-25T10:24:07.224Z,18.50
2019-02-25T10:25:07.202Z,16.10
2019-02-25T10:26:07.174Z,17.00
2019-02-25T10:27:07.153Z,17.70
2019-02-25T10:28:07.130Z,19.30
2019-02-25T10:29:07.108Z,18.30
2019-02-25T10:30:07.085Z,17.10
2019-02-25T10:31:07.059Z,17.50
2019-02-25T10:32:07.057Z,16.60
2019-02-25T10:33:07.018Z,16.50
2019-02-25T10:34:07.667Z,15.80
2019-02-25T10:35:06.972Z,17.40
2019-02-25T10:36:06.947Z,16.00
2019-02-25T10:37:06.925Z,16.10
2019-02-25T10:38:06.904Z,16.50
2019-02-25T10:39:08.590Z,15.60
2019-02-25T10:40:06.904Z,15.60
2019-02-25T10:41:06.836Z,17.60
2019-02-25T10:42:06.815Z,17.60
2019-02-25T10:43:06.793Z,16.30
2019-02-25T10:44:08.517Z,18.00
2019-02-25T10:45:07.366Z,16.60
2019-02-25T10:46:07.111Z,15.90
2019-02-25T10:47:06.700Z,15.40
2019-02-25T10:48:06.679Z,15.50
2019-02-25T10:49:11.649Z,17.00
2019-02-25T10:50:07.460Z,16.20
2019-02-25T10:51:07.642Z,17.90
2019-02-25T10:52:08.644Z,14.00
2019-02-25T10:53:06.577Z,14.30
2019-02-25T10:54:06.550Z,16.60
2019-02-25T10:55:06.524Z,15.80
2019-02-25T10:56:06.499Z,17.50
2019-02-25T10:57:06.479Z,15.30
2019-02-25T10:58:06.462Z,14.60
2019-02-25T10:59:08.118Z,16.50
2019-02-25T11:00:07.388Z,14.80
2019-02-25T11:01:08.462Z,15.10
2019-02-25T11:02:06.368Z,16.60
2019-02-25T11:03:06.345Z,15.70
2019-02-25T11:04:06.333Z,16.20
2019-02-25T11:05:06.300Z,16.90
2019-02-25T11:06:06.287Z,14.60
2019-02-25T11:07:07.825Z,15.20
2019-02-25T11:08:07.480Z,14.00
2019-02-25T11:09:07.036Z,15.30
2019-02-25T11:10:06.192Z,16.20
2019-02-25T11:11:06.169Z,15.20
2019-02-25T11:12:06.164Z,15.30
2019-02-25T11:13:06.126Z,16.60
2019-02-25T11:14:07.203Z,15.00
2019-02-25T11:15:07.480Z,14.50
2019-02-25T11:16:06.063Z,15.90
2019-02-25T11:17:06.037Z,15.20
2019-02-25T11:18:06.022Z,14.70
2019-02-25T11:19:05.999Z,15.70
2019-02-25T11:20:05.980Z,14.40
2019-02-25T11:21:06.904Z,15.60
2019-02-25T11:22:07.807Z,14.20
2019-02-25T11:23:05.909Z,16.60
2019-02-25T11:24:05.889Z,15.70
2019-02-25T11:25:05.865Z,15.20
2019-02-25T11:26:05.850Z,14.30
2019-02-25T11:27:07.309Z,17.20
2019-02-25T11:28:07.619Z,14.60
2019-02-25T11:29:07.639Z,14.70
2019-02-25T11:30:05.766Z,14.50
2019-02-25T11:31:05.739Z,14.70
2019-02-25T11:32:05.717Z,13.30
2019-02-25T11:33:05.700Z,15.40
2019-02-25T11:34:07.863Z,14.50
2019-02-25T11:35:06.375Z,19.00
2019-02-25T11:36:05.642Z,14.50
2019-02-25T11:37:05.612Z,14.70
2019-02-25T11:38:05.594Z,14.10
2019-02-25T11:39:07.009Z,14.60
2019-02-25T11:40:05.547Z,14.60
2019-02-25T11:41:07.132Z,15.20
2019-02-25T11:42:07.425Z,15.40
2019-02-25T11:43:05.490Z,15.90
2019-02-25T11:44:05.464Z,14.30
2019-02-25T11:45:05.443Z,14.30
2019-02-25T11:46:05.424Z,13.80
2019-02-25T11:47:05.397Z,14.30
2019-02-25T11:48:05.387Z,14.30
2019-02-25T11:49:05.354Z,13.90
2019-02-25T11:50:05.334Z,13.60
2019-02-25T11:51:05.312Z,13.20
2019-02-25T11:52:05.299Z,13.80
2019-02-25T11:53:05.273Z,14.50
2019-02-25T11:54:05.258Z,14.00
2019-02-25T11:55:05.231Z,15.80
2019-02-25T11:56:05.209Z,15.30
2019-02-25T11:57:05.193Z,14.20
2019-02-25T11:58:05.167Z,14.00
2019-02-25T11:59:05.146Z,14.60
2019-02-25T12:00:05.128Z,14.40
2019-02-25T12:01:05.111Z,13.40
2019-02-25T12:02:05.085Z,14.20
2019-02-25T12:03:05.069Z,15.00
2019-02-25T12:04:05.043Z,14.80
2019-02-25T12:05:05.021Z,14.60
2019-02-25T12:06:05.000Z,14.30
2019-02-25T12:07:04.982Z,14.20
2019-02-25T12:08:04.961Z,14.00
2019-02-25T12:09:04.942Z,14.80
2019-02-25T12:10:04.916Z,15.10
2019-02-25T12:11:04.896Z,13.70
2019-02-25T12:12:04.878Z,16.30
2019-02-25T12:13:04.855Z,13.80
2019-02-25T12:14:04.833Z,14.90
2019-02-25T12:15:04.833Z,13.80
2019-02-25T12:16:04.793Z,14.00
2019-02-25T12:17:04.772Z,13.40
2019-02-25T12:18:04.751Z,12.70
2019-02-25T12:19:04.729Z,14.90
2019-02-25T12:20:04.707Z,13.30
2019-02-25T12:21:04.688Z,13.90
2019-02-25T12:22:04.668Z,12.80
2019-02-25T12:23:04.648Z,12.50
2019-02-25T12:24:04.626Z,12.80
2019-02-25T12:25:04.611Z,12.60
2019-02-25T12:26:04.603Z,12.90
2019-02-25T12:27:04.567Z,12.50
2019-02-25T12:28:04.544Z,13.00
2019-02-25T12:29:10.759Z,12.50
2019-02-25T12:30:04.507Z,11.90
2019-02-25T12:31:04.491Z,11.10
2019-02-25T12:32:04.465Z,12.10
2019-02-25T12:33:04.444Z,12.30
2019-02-25T12:34:04.434Z,13.70
2019-02-25T12:35:04.402Z,13.70
2019-02-25T12:36:04.384Z,12.30
2019-02-25T12:37:04.369Z,13.40
2019-02-25T12:38:04.338Z,13.40
2019-02-25T12:39:04.338Z,12.80
2019-02-25T12:40:04.302Z,12.80
2019-02-25T12:41:04.284Z,13.50
2019-02-25T12:42:04.267Z,13.40
2019-02-25T12:43:04.238Z,14.90
2019-02-25T12:44:04.228Z,15.00
2019-02-25T12:45:04.197Z,14.60
2019-02-25T12:46:04.181Z,13.60
2019-02-25T12:47:04.159Z,14.20
2019-02-25T12:48:04.144Z,12.00
2019-02-25T12:49:04.114Z,12.60
2019-02-25T12:50:04.093Z,12.20
2019-02-25T12:51:04.074Z,11.80
2019-02-25T12:52:04.057Z,12.00